createdAt,value
2022-11-17T00:00:01.089Z,974.2624
2022-11-17T00:01:01.242Z,974.0069
2022-11-17T00:02:00.465Z,974.0575
2022-11-17T00:03:00.531Z,973.9721
2022-11-17T00:04:00.677Z,974.1429
2022-11-17T00:05:00.822Z,974.029
2022-11-17T00:06:00.973Z,973.8582
2022-11-17T00:07:01.197Z,974.0639
2022-11-17T00:08:00.270Z,973.7785
2022-11-17T00:09:00.402Z,973.7571
2022-11-17T00:10:00.557Z,973.7508
2022-11-17T00:11:00.688Z,973.8646
2022-11-17T00:12:00.855Z,973.9152
2022-11-17T00:13:01.002Z,973.8013
2022-11-17T00:14:01.139Z,973.7728
2022-11-17T00:15:00.348Z,973.9436
2022-11-17T00:16:00.436Z,973.8013
2022-11-17T00:17:00.597Z,973.95
2022-11-17T00:18:00.716Z,973.7728
2022-11-17T00:19:00.864Z,973.7444
2022-11-17T00:20:01.017Z,973.8013
2022-11-17T00:21:01.167Z,973.8013
2022-11-17T00:22:00.327Z,973.8582
2022-11-17T00:23:00.459Z,973.7444
2022-11-17T00:24:00.611Z,973.7159
2022-11-17T00:25:00.765Z,973.6875
2022-11-17T00:26:00.905Z,973.8582
2022-11-17T00:27:01.055Z,973.8013
2022-11-17T00:28:01.224Z,973.7444
2022-11-17T00:29:00.354Z,973.8298
2022-11-17T00:30:00.499Z,973.8298
2022-11-17T00:31:00.669Z,973.8582
2022-11-17T00:32:00.798Z,973.7444
2022-11-17T00:33:00.951Z,973.8013
2022-11-17T00:34:01.088Z,973.6485
2022-11-17T00:35:01.239Z,973.7181
2022-11-17T00:36:00.390Z,973.8035
2022-11-17T00:37:00.545Z,973.699
2022-11-17T00:38:00.695Z,973.7908
2022-11-17T00:39:00.841Z,973.7496
2022-11-17T00:40:01.486Z,973.8192
2022-11-17T00:41:01.137Z,973.8035
2022-11-17T00:42:00.284Z,973.7338
2022-11-17T00:43:00.444Z,973.7338
2022-11-17T00:44:00.576Z,973.7559
2022-11-17T00:45:00.745Z,973.7559
2022-11-17T00:46:00.883Z,973.9615
2022-11-17T00:47:01.060Z,973.7338
2022-11-17T00:48:01.192Z,973.8477
2022-11-17T00:49:00.333Z,973.7466
2022-11-17T00:50:00.486Z,973.8035
2022-11-17T00:51:00.657Z,973.6875
2022-11-17T00:52:00.822Z,973.7444
2022-11-17T00:53:00.940Z,973.7444
2022-11-17T00:54:01.103Z,973.8013
2022-11-17T00:55:01.334Z,973.8013
2022-11-17T00:56:00.395Z,973.8013
2022-11-17T00:57:00.559Z,973.9152
2022-11-17T00:58:00.719Z,973.8604
2022-11-17T00:59:00.841Z,973.7728
2022-11-17T01:00:00.994Z,973.7728
2022-11-17T01:01:01.230Z,973.6485
2022-11-17T01:02:00.372Z,973.6926
2022-11-17T01:03:00.448Z,973.7908
2022-11-17T01:04:00.585Z,973.5695
2022-11-17T01:05:00.726Z,973.6328
2022-11-17T01:06:00.873Z,973.5758
2022-11-17T01:07:01.076Z,973.5567
2022-11-17T01:08:01.195Z,973.5162
2022-11-17T01:09:00.341Z,973.7338
2022-11-17T01:10:00.461Z,973.6328
2022-11-17T01:11:00.621Z,973.541
2022-11-17T01:12:00.761Z,973.6875
2022-11-17T01:13:00.919Z,973.6875
2022-11-17T01:14:01.070Z,973.4982
2022-11-17T01:15:01.196Z,973.6875
2022-11-17T01:16:00.354Z,973.6875
2022-11-17T01:17:00.506Z,973.6875
2022-11-17T01:18:00.639Z,973.4698
2022-11-17T01:19:00.791Z,973.3274
2022-11-17T01:20:00.935Z,973.6875
2022-11-17T01:21:01.116Z,973.5162
2022-11-17T01:22:01.239Z,973.4465
2022-11-17T01:23:00.377Z,973.3454
2022-11-17T01:24:00.526Z,973.5758
2022-11-17T01:25:00.674Z,973.5758
2022-11-17T01:26:00.850Z,973.3581
2022-11-17T01:27:00.990Z,973.5162
2022-11-17T01:28:01.137Z,973.3106
2022-11-17T01:29:00.298Z,973.4465
2022-11-17T01:30:00.440Z,973.2537
2022-11-17T01:31:00.582Z,973.2885
2022-11-17T01:32:00.734Z,973.5758
2022-11-17T01:33:00.855Z,973.3581
2022-11-17T01:34:01.016Z,973.2316
2022-11-17T01:35:01.147Z,973.2705
2022-11-17T01:36:00.299Z,973.2136
2022-11-17T01:37:00.450Z,973.3866
2022-11-17T01:38:00.585Z,973.2031
2022-11-17T01:39:00.754Z,973.1968
2022-11-17T01:40:00.878Z,973.4465
2022-11-17T01:41:01.037Z,973.4465
2022-11-17T01:42:01.162Z,973.4117
2022-11-17T01:43:00.315Z,973.1144
2022-11-17T01:44:00.487Z,973.1492
2022-11-17T01:45:00.619Z,973.3421
2022-11-17T01:46:00.771Z,973.1642
2022-11-17T01:47:01.368Z,972.9935
2022-11-17T01:48:01.063Z,973.3349
2022-11-17T01:49:01.236Z,973.1073
2022-11-17T01:50:00.357Z,973.0006
2022-11-17T01:51:00.508Z,973.0418
2022-11-17T01:52:00.681Z,973.184
2022-11-17T01:53:00.813Z,973.0418
2022-11-17T01:54:00.959Z,973.1208
2022-11-17T01:55:01.123Z,973.007
2022-11-17T01:57:00.365Z,973.0219
2022-11-17T01:58:00.506Z,972.95
2022-11-17T01:59:00.658Z,973.0987
2022-11-17T02:00:00.833Z,972.9848
2022-11-17T02:01:00.974Z,973.1556
2022-11-17T02:02:01.211Z,972.9627
2022-11-17T02:03:00.277Z,973.1747
2022-11-17T02:04:00.434Z,973.0893
2022-11-17T02:05:00.561Z,973.0545
2022-11-17T02:06:00.748Z,972.9754
2022-11-17T02:07:00.935Z,973.0735
2022-11-17T02:08:00.998Z,972.9976
2022-11-17T02:09:01.143Z,973.1114
2022-11-17T02:10:00.295Z,973.0039
2022-11-17T02:11:00.460Z,972.9691
2022-11-17T02:12:00.602Z,973.0039
2022-11-17T02:13:00.759Z,973.1462
2022-11-17T02:14:00.890Z,973.0608
2022-11-17T02:15:01.038Z,972.9754
2022-11-17T02:16:01.249Z,972.9185
2022-11-17T02:17:08.877Z,972.8616
2022-11-17T02:18:00.497Z,972.9185
2022-11-17T02:19:00.637Z,972.8047
2022-11-17T02:20:00.769Z,972.871
2022-11-17T02:21:00.918Z,972.9122
2022-11-17T02:22:01.066Z,972.9058
2022-11-17T02:23:01.237Z,972.9976
2022-11-17T02:24:00.353Z,972.9406
2022-11-17T02:25:00.499Z,973.0608
2022-11-17T02:26:00.643Z,973.0197
2022-11-17T02:27:00.797Z,973.007
2022-11-17T02:28:00.968Z,972.965
2022-11-17T02:29:01.094Z,972.9958
2022-11-17T02:30:01.241Z,972.9389
2022-11-17T02:31:00.387Z,973.2234
2022-11-17T02:32:00.533Z,973.1261
2022-11-17T02:33:00.701Z,972.8985
2022-11-17T02:34:00.827Z,973.0494
2022-11-17T02:35:00.988Z,973.0153
2022-11-17T02:36:01.120Z,972.9798
2022-11-17T02:37:00.275Z,973.0217
2022-11-17T02:38:00.407Z,973.0217
2022-11-17T02:39:00.556Z,972.9394
2022-11-17T02:40:00.714Z,973.1954
2022-11-17T02:41:00.866Z,973.1029
2022-11-17T02:42:00.999Z,973.0902
2022-11-17T02:43:01.143Z,972.8848
2022-11-17T02:44:00.293Z,972.85
2022-11-17T02:45:00.435Z,972.9069
2022-11-17T02:46:00.615Z,972.8784
2022-11-17T02:47:00.739Z,972.7804
2022-11-17T02:48:00.896Z,972.7385
2022-11-17T02:49:01.050Z,973.0798
2022-11-17T02:50:01.181Z,972.8609
2022-11-17T02:51:00.331Z,972.7322
2022-11-17T02:52:00.459Z,972.804
2022-11-17T02:53:00.658Z,973.0031
2022-11-17T02:54:00.764Z,972.7921
2022-11-17T02:55:00.918Z,972.9335
2022-11-17T02:56:01.056Z,972.7281
2022-11-17T02:57:01.190Z,972.9059
2022-11-17T02:58:00.344Z,972.6713
2022-11-17T02:59:00.478Z,972.7566
2022-11-17T03:00:00.616Z,972.8134
2022-11-17T03:01:00.766Z,972.7525
2022-11-17T03:02:00.922Z,972.8038
2022-11-17T03:03:01.048Z,972.6135
2022-11-17T03:04:01.212Z,972.7272
2022-11-17T03:05:00.342Z,972.6924
2022-11-17T03:06:00.536Z,972.784
2022-11-17T03:07:00.684Z,972.863
2022-11-17T03:08:00.794Z,972.8061
2022-11-17T03:09:00.949Z,972.7713
2022-11-17T03:10:01.097Z,972.6726
2022-11-17T03:11:01.238Z,972.7998
2022-11-17T03:12:00.396Z,972.7863
2022-11-17T03:13:00.576Z,972.667
2022-11-17T03:14:00.701Z,972.7049
2022-11-17T03:15:00.856Z,972.727
2022-11-17T03:16:00.994Z,972.6503
2022-11-17T03:17:01.146Z,972.764
2022-11-17T03:18:00.305Z,972.5453
2022-11-17T03:19:00.439Z,972.4629
2022-11-17T03:20:00.578Z,972.5484
2022-11-17T03:21:00.765Z,972.5263
2022-11-17T03:22:00.873Z,972.5642
2022-11-17T03:23:01.024Z,972.6494
2022-11-17T03:24:01.158Z,972.7346
2022-11-17T03:25:00.309Z,972.5294
2022-11-17T03:26:00.471Z,972.5799
2022-11-17T03:27:00.603Z,972.5672
2022-11-17T03:28:00.748Z,972.5956
2022-11-17T03:29:00.931Z,972.5277
2022-11-17T03:30:01.046Z,972.5561
2022-11-17T03:31:01.193Z,972.5277
2022-11-17T03:32:00.334Z,972.6697
2022-11-17T03:33:00.483Z,972.4509
2022-11-17T03:34:00.655Z,972.5845
2022-11-17T03:35:00.774Z,972.5561
2022-11-17T03:36:00.913Z,972.6697
2022-11-17T03:37:01.063Z,972.5916
2022-11-17T03:38:01.213Z,972.5916
2022-11-17T03:39:00.371Z,972.7045
2022-11-17T03:40:00.505Z,972.5972
2022-11-17T03:41:00.675Z,972.5759
2022-11-17T03:42:00.802Z,972.654
2022-11-17T03:43:00.953Z,972.7266
2022-11-17T03:44:01.105Z,972.5845
2022-11-17T03:46:00.375Z,972.5592
2022-11-17T03:47:00.507Z,972.5561
2022-11-17T03:48:00.645Z,972.6413
2022-11-17T03:49:00.803Z,972.5916
2022-11-17T03:50:00.948Z,972.5348
2022-11-17T03:51:01.107Z,972.6327
2022-11-17T03:52:01.240Z,972.4833
2022-11-17T03:53:00.390Z,972.5885
2022-11-17T03:54:00.533Z,972.5672
2022-11-17T03:55:00.685Z,972.4833
2022-11-17T03:56:00.840Z,972.5885
2022-11-17T03:57:01.019Z,972.6738
2022-11-17T03:58:01.130Z,972.617
2022-11-17T03:59:00.280Z,972.4707
2022-11-17T04:00:00.425Z,972.6241
2022-11-17T04:01:00.581Z,972.4636
2022-11-17T04:02:00.840Z,972.6413
2022-11-17T04:03:00.864Z,972.5845
2022-11-17T04:04:01.032Z,972.3341
2022-11-17T04:05:01.155Z,972.3625
2022-11-17T04:06:00.302Z,972.5277
2022-11-17T04:07:00.470Z,972.3404
2022-11-17T04:08:00.597Z,972.3972
2022-11-17T04:09:00.756Z,972.4406
2022-11-17T04:10:00.895Z,972.4974
2022-11-17T04:11:01.034Z,972.5592
2022-11-17T04:12:01.184Z,972.4477
2022-11-17T04:13:00.317Z,972.3561
2022-11-17T04:14:00.496Z,972.4129
2022-11-17T04:15:00.619Z,972.4279
2022-11-17T04:16:00.764Z,972.3301
2022-11-17T04:17:00.925Z,972.4153
2022-11-17T04:18:01.058Z,972.3143
2022-11-17T04:19:01.225Z,972.4153
2022-11-17T04:20:00.360Z,972.6561
2022-11-17T04:21:00.501Z,972.2708
2022-11-17T04:22:00.642Z,972.4278
2022-11-17T04:23:00.789Z,972.4278
2022-11-17T04:24:00.970Z,972.2006
2022-11-17T04:25:01.093Z,972.4278
2022-11-17T04:26:01.243Z,972.2424
2022-11-17T04:27:00.398Z,972.3931
2022-11-17T04:28:00.547Z,972.3867
2022-11-17T04:29:00.726Z,972.1249
2022-11-17T04:30:00.861Z,972.3236
2022-11-17T04:31:00.993Z,972.0397
2022-11-17T04:32:01.135Z,971.9482
2022-11-17T04:33:00.294Z,972.2889
2022-11-17T04:34:00.447Z,972.0902
2022-11-17T04:35:00.591Z,972.2889
2022-11-17T04:36:00.731Z,972.2889
2022-11-17T04:37:06.923Z,972.2471
2022-11-17T04:38:01.031Z,972.1777
2022-11-17T04:39:01.204Z,972.0736
2022-11-17T04:40:00.334Z,972.0673
2022-11-17T04:41:00.483Z,972.0389
2022-11-17T04:42:00.637Z,972.0042
2022-11-17T04:43:00.786Z,972.0894
2022-11-17T04:44:00.946Z,972.0042
2022-11-17T04:45:01.075Z,972.1178
2022-11-17T04:46:01.239Z,972.1895
2022-11-17T04:47:00.381Z,972.0066
2022-11-17T04:48:00.535Z,972.0287
2022-11-17T04:49:00.692Z,972.0941
2022-11-17T04:50:00.827Z,972.0373
2022-11-17T04:51:00.981Z,971.9955
2022-11-17T04:52:01.152Z,971.9396
2022-11-17T04:53:00.268Z,971.9672
2022-11-17T04:54:00.406Z,971.9963
2022-11-17T04:55:00.561Z,971.9396
2022-11-17T04:56:00.711Z,971.9072
2022-11-17T04:57:00.869Z,971.8258
2022-11-17T04:58:01.005Z,971.9443
2022-11-17T04:59:01.145Z,971.7848
2022-11-17T05:00:00.291Z,971.6997
2022-11-17T05:01:00.439Z,971.9167
2022-11-17T05:02:05.633Z,971.7848
2022-11-17T05:03:00.723Z,971.7848
2022-11-17T05:04:00.868Z,971.8403
2022-11-17T05:05:01.013Z,971.8132
2022-11-17T05:06:01.171Z,971.7368
2022-11-17T05:07:00.411Z,971.68
2022-11-17T05:08:00.455Z,971.8403
2022-11-17T05:09:00.596Z,971.7951
2022-11-17T05:10:00.736Z,971.8474
2022-11-17T05:11:00.961Z,971.8403
2022-11-17T05:12:01.048Z,971.7084
2022-11-17T05:13:01.183Z,971.8132
2022-11-17T05:14:00.332Z,971.7281
2022-11-17T05:15:00.471Z,971.7281
2022-11-17T05:16:00.628Z,971.6997
2022-11-17T05:17:07.377Z,971.7911
2022-11-17T05:18:00.923Z,971.7691
2022-11-17T05:19:01.079Z,971.6122
2022-11-17T05:20:01.233Z,971.8108
2022-11-17T05:21:00.368Z,971.9396
2022-11-17T05:22:00.522Z,972.0531
2022-11-17T05:23:06.384Z,971.9396
2022-11-17T05:24:00.811Z,971.8544
2022-11-17T05:25:00.977Z,971.8361
2022-11-17T05:26:01.106Z,971.8828
2022-11-17T05:28:00.360Z,971.7225
2022-11-17T05:29:00.489Z,971.7501
2022-11-17T05:30:00.660Z,971.7225
2022-11-17T05:31:00.816Z,971.7501
2022-11-17T05:32:00.942Z,971.7919
2022-11-17T05:33:01.083Z,971.5231
2022-11-17T05:34:01.230Z,971.4104
2022-11-17T05:35:00.392Z,971.4104
2022-11-17T05:36:00.533Z,971.7225
2022-11-17T05:37:00.680Z,971.5239
2022-11-17T05:38:00.821Z,971.7225
2022-11-17T05:39:00.981Z,971.7225
2022-11-17T05:40:01.114Z,971.7225
2022-11-17T05:41:00.279Z,971.5239
2022-11-17T05:42:00.404Z,971.5421
2022-11-17T05:43:00.557Z,971.5768
2022-11-17T05:44:00.711Z,971.5768
2022-11-17T05:45:00.915Z,971.5421
2022-11-17T05:46:01.018Z,971.293
2022-11-17T05:47:01.168Z,971.5421
2022-11-17T05:48:00.304Z,971.7225
2022-11-17T05:49:00.457Z,971.4065
2022-11-17T05:50:00.609Z,971.293
2022-11-17T05:51:00.747Z,971.3001
2022-11-17T05:52:00.896Z,971.3285
2022-11-17T05:53:01.056Z,971.2646
2022-11-17T05:54:01.186Z,971.3285
2022-11-17T05:55:00.336Z,971.3001
2022-11-17T05:56:00.478Z,971.2646
2022-11-17T05:57:00.632Z,971.1015
2022-11-17T05:58:00.815Z,971.1582
2022-11-17T05:59:00.942Z,971.0597
2022-11-17T06:00:01.093Z,971.1015
2022-11-17T06:01:01.246Z,971.1015
2022-11-17T06:02:00.405Z,971.3536
2022-11-17T06:03:00.569Z,971.1582
2022-11-17T06:04:00.728Z,971.0731
2022-11-17T06:05:00.841Z,971.2401
2022-11-17T06:06:00.979Z,971.2401
2022-11-17T06:07:01.157Z,971.2401
2022-11-17T06:08:00.307Z,971.3536
2022-11-17T06:09:00.440Z,971.382
2022-11-17T06:10:00.589Z,971.3536
2022-11-17T06:11:00.737Z,971.2401
2022-11-17T06:12:05.550Z,971.2401
2022-11-17T06:13:01.056Z,971.2969
2022-11-17T06:14:01.177Z,971.2117
2022-11-17T06:15:00.315Z,971.3536
2022-11-17T06:16:00.464Z,971.2401
2022-11-17T06:17:00.627Z,971.1732
2022-11-17T06:18:00.789Z,971.2016
2022-11-17T06:19:00.915Z,971.1039
2022-11-17T06:20:01.061Z,971.189
2022-11-17T06:21:01.230Z,970.9274
2022-11-17T06:22:12.761Z,971.2166
2022-11-17T06:23:00.530Z,971.189
2022-11-17T06:24:00.654Z,971.1039
2022-11-17T06:25:00.809Z,971.1386
2022-11-17T06:26:00.952Z,971.0188
2022-11-17T06:27:01.115Z,970.9211
2022-11-17T06:28:01.269Z,971.3963
2022-11-17T06:29:00.396Z,971.0843
2022-11-17T06:30:00.535Z,970.9708
2022-11-17T06:31:00.687Z,971.0275
2022-11-17T06:32:00.838Z,971.0275
2022-11-17T06:33:00.998Z,971.0275
2022-11-17T06:34:01.127Z,970.9992
2022-11-17T06:35:00.280Z,970.9495
2022-11-17T06:36:00.422Z,971.1126
2022-11-17T06:37:00.561Z,970.9211
2022-11-17T06:38:00.706Z,971.0275
2022-11-17T06:39:00.881Z,971.0559
2022-11-17T06:40:01.009Z,970.9157
2022-11-17T06:41:01.151Z,971.0275
2022-11-17T06:42:00.283Z,970.7455
2022-11-17T06:43:00.435Z,970.9424
2022-11-17T06:44:00.605Z,970.8306
2022-11-17T06:45:00.737Z,970.7722
2022-11-17T06:46:00.896Z,971.0062
2022-11-17T06:47:01.038Z,970.914
2022-11-17T06:48:01.185Z,971.0275
2022-11-17T06:49:00.347Z,971.0275
2022-11-17T06:50:00.479Z,970.9708
2022-11-17T06:51:00.622Z,970.914
2022-11-17T06:52:00.777Z,971.1126
2022-11-17T06:53:00.959Z,970.9708
2022-11-17T06:54:01.101Z,971.1039
2022-11-17T06:55:01.262Z,970.9904
2022-11-17T06:56:00.379Z,970.9779
2022-11-17T06:57:00.530Z,970.8077
2022-11-17T06:58:00.685Z,970.8077
2022-11-17T06:59:00.823Z,970.8077
2022-11-17T07:00:01.008Z,970.8202
2022-11-17T07:01:01.199Z,971.0251
2022-11-17T07:02:01.270Z,970.9462
2022-11-17T07:03:00.422Z,971.066
2022-11-17T07:04:00.573Z,971.1266
2022-11-17T07:05:00.729Z,971.2401
2022-11-17T07:06:00.902Z,971.0131
2022-11-17T07:07:01.039Z,971.0415
2022-11-17T07:08:01.149Z,971.1266
2022-11-17T07:09:00.294Z,971.2401
2022-11-17T07:10:00.445Z,971.2401
2022-11-17T07:11:00.610Z,971.0824
2022-11-17T07:12:00.749Z,971.1959
2022-11-17T07:13:00.888Z,971.2748
2022-11-17T07:14:01.033Z,971.3157
2022-11-17T07:15:01.187Z,971.054
2022-11-17T07:16:00.336Z,971.2109
2022-11-17T07:17:00.502Z,971.1266
2022-11-17T07:18:00.632Z,971.1392
2022-11-17T07:19:00.786Z,971.2117
2022-11-17T07:20:00.915Z,971.2677
2022-11-17T07:21:01.090Z,971.1834
2022-11-17T07:22:01.197Z,971.1392
2022-11-17T07:23:00.355Z,971.2748
2022-11-17T07:24:00.502Z,971.2306
2022-11-17T07:25:00.655Z,971.1588
2022-11-17T07:26:00.872Z,971.1021
2022-11-17T07:27:00.963Z,971.1935
2022-11-17T07:28:01.090Z,971.1911
2022-11-17T07:29:01.245Z,971.2195
2022-11-17T07:30:00.393Z,971.1122
2022-11-17T07:31:00.566Z,971.169
2022-11-17T07:32:00.684Z,971.1816
2022-11-17T07:33:00.851Z,971.1657
2022-11-17T07:34:01.001Z,971.1657
2022-11-17T07:35:01.135Z,971.1941
2022-11-17T07:36:00.295Z,971.2856
2022-11-17T07:37:00.451Z,971.2351
2022-11-17T07:38:00.581Z,971.1854
2022-11-17T07:39:00.729Z,971.1633
2022-11-17T07:40:00.881Z,971.2193
2022-11-17T07:41:01.036Z,971.1759
2022-11-17T07:42:01.209Z,971.2382
2022-11-17T07:43:00.321Z,971.1759
2022-11-17T07:44:00.473Z,971.1246
2022-11-17T07:45:00.621Z,971.1167
2022-11-17T07:46:00.775Z,971.0315
2022-11-17T07:47:00.912Z,970.9463
2022-11-17T07:48:01.054Z,971.1451
2022-11-17T07:49:01.235Z,970.9463
2022-11-17T07:50:00.358Z,970.9463
2022-11-17T07:51:00.507Z,970.9242
2022-11-17T07:52:00.644Z,971.0441
2022-11-17T07:53:00.850Z,971.141
2022-11-17T07:54:00.961Z,970.9777
2022-11-17T07:55:01.092Z,971.0629
2022-11-17T07:56:01.225Z,971.1765
2022-11-17T07:57:00.389Z,971.1197
2022-11-17T07:58:00.530Z,971.0629
2022-11-17T07:59:00.695Z,971.0061
2022-11-17T08:00:00.818Z,971.0463
2022-11-17T08:01:01.048Z,971.1725
2022-11-17T08:02:01.116Z,971.4099
2022-11-17T08:03:01.270Z,971.353
2022-11-17T08:04:00.513Z,971.4383
2022-11-17T08:05:00.585Z,971.1156
2022-11-17T08:06:00.724Z,971.0375
2022-11-17T08:07:00.940Z,971.211
2022-11-17T08:08:01.009Z,971.2962
2022-11-17T08:09:01.182Z,971.2591
2022-11-17T08:10:00.311Z,971.0799
2022-11-17T08:11:00.466Z,971.2124
2022-11-17T08:12:00.608Z,971.2124
2022-11-17T08:13:00.766Z,971.2346
2022-11-17T08:14:00.917Z,971.1335
2022-11-17T08:15:01.072Z,970.9914
2022-11-17T08:16:01.185Z,971.0617
2022-11-17T08:17:00.342Z,971.1026
2022-11-17T08:18:00.488Z,970.91
2022-11-17T08:19:00.632Z,970.8879
2022-11-17T08:20:00.786Z,970.9005
2022-11-17T08:21:00.944Z,970.8783
2022-11-17T08:22:01.071Z,970.9352
2022-11-17T08:23:01.221Z,970.913
2022-11-17T08:24:00.382Z,970.8696
2022-11-17T08:25:00.504Z,970.9319
2022-11-17T08:26:00.653Z,970.8805
2022-11-17T08:27:00.837Z,971.0147
2022-11-17T08:28:00.960Z,970.942
2022-11-17T08:29:01.137Z,971.103
2022-11-17T08:30:01.271Z,971.1449
2022-11-17T08:31:00.411Z,971.0311
2022-11-17T08:32:00.549Z,970.93
2022-11-17T08:33:00.711Z,971.1542
2022-11-17T08:34:00.870Z,971.1258
2022-11-17T08:35:01.037Z,971.0973
2022-11-17T08:36:01.164Z,971.1826
2022-11-17T08:37:00.309Z,971.0689
2022-11-17T08:38:00.469Z,970.8414
2022-11-17T08:39:00.609Z,970.7917
2022-11-17T08:40:00.773Z,970.9623
2022-11-17T08:41:00.909Z,971.0159
2022-11-17T08:42:01.063Z,970.8737
2022-11-17T08:43:01.814Z,970.9344
2022-11-17T08:44:00.349Z,970.9754
2022-11-17T08:45:00.509Z,970.9754
2022-11-17T08:46:00.655Z,970.906
2022-11-17T08:47:00.801Z,971.0039
2022-11-17T08:48:00.968Z,970.9754
2022-11-17T08:49:01.103Z,970.7605
2022-11-17T08:50:01.279Z,971.1144
2022-11-17T08:51:00.411Z,971.0203
2022-11-17T08:52:00.558Z,970.8718
2022-11-17T08:53:00.732Z,970.8718
2022-11-17T08:54:00.862Z,970.7793
2022-11-17T08:55:01.082Z,970.9287
2022-11-17T08:56:01.192Z,970.9413
2022-11-17T08:57:00.415Z,970.799
2022-11-17T08:58:00.474Z,971.1079
2022-11-17T08:59:00.604Z,970.9853
2022-11-17T09:00:00.733Z,970.9987
2022-11-17T09:01:05.150Z,970.8715
2022-11-17T09:02:01.037Z,970.8866
2022-11-17T09:03:01.180Z,970.8209
2022-11-17T09:04:00.322Z,970.9418
2022-11-17T09:05:00.465Z,970.7995
2022-11-17T09:06:00.637Z,970.79
2022-11-17T09:07:00.812Z,970.7552
2022-11-17T09:08:22.349Z,970.9385
2022-11-17T09:09:01.361Z,970.8247
2022-11-17T09:10:01.196Z,970.869
2022-11-17T09:11:00.337Z,970.9385
2022-11-17T09:12:00.482Z,970.8753
2022-11-17T09:13:00.646Z,971.0119
2022-11-17T09:14:00.821Z,970.7298
2022-11-17T09:15:00.933Z,970.6033
2022-11-17T09:16:01.076Z,970.7456
2022-11-17T09:17:01.218Z,970.8088
2022-11-17T09:18:00.372Z,970.9265
2022-11-17T09:19:00.548Z,970.8696
2022-11-17T09:20:00.663Z,970.8696
2022-11-17T09:21:00.802Z,970.8411
2022-11-17T09:22:00.944Z,970.8696
2022-11-17T09:23:01.100Z,970.819
2022-11-17T09:24:01.266Z,970.8981
2022-11-17T09:25:00.398Z,970.8759
2022-11-17T09:26:00.546Z,971.0182
2022-11-17T09:27:00.694Z,970.9265
2022-11-17T09:28:00.847Z,970.9613
2022-11-17T09:29:01.037Z,970.8537
2022-11-17T09:30:01.157Z,970.8537
2022-11-17T09:31:01.434Z,970.8885
2022-11-17T09:32:00.442Z,970.8789
2022-11-17T09:33:00.590Z,970.9342
2022-11-17T09:34:04.908Z,970.7475
2022-11-17T09:35:00.913Z,970.8614
2022-11-17T09:36:01.056Z,970.6872
2022-11-17T09:37:01.212Z,970.8841
2022-11-17T09:38:00.354Z,970.823
2022-11-17T09:39:00.543Z,970.9274
2022-11-17T09:40:00.655Z,970.599
2022-11-17T09:41:00.811Z,970.8181
2022-11-17T09:42:00.954Z,970.7293
2022-11-17T09:43:01.205Z,970.9693
2022-11-17T09:44:01.275Z,970.6782
2022-11-17T09:45:00.404Z,970.6338
2022-11-17T09:46:04.588Z,970.9274
2022-11-17T09:47:00.695Z,970.63
2022-11-17T09:48:18.635Z,970.8578
2022-11-17T09:49:01.018Z,970.6015
2022-11-17T09:50:01.143Z,970.8578
2022-11-17T09:51:00.290Z,970.5001
2022-11-17T09:52:00.434Z,970.6907
2022-11-17T09:53:00.583Z,970.5135
2022-11-17T09:54:00.753Z,970.5332
2022-11-17T09:55:00.924Z,970.6187
2022-11-17T09:56:01.049Z,970.4478
2022-11-17T09:57:01.195Z,970.6811
2022-11-17T09:58:00.334Z,970.5521
2022-11-17T09:59:00.474Z,970.4951
2022-11-17T10:00:00.634Z,970.4382
2022-11-17T10:01:00.760Z,970.4445
2022-11-17T10:02:00.997Z,970.4382
2022-11-17T10:03:01.054Z,970.5869
2022-11-17T10:04:01.200Z,970.4729
2022-11-17T10:05:00.360Z,970.4704
2022-11-17T10:06:00.492Z,970.4981
2022-11-17T10:07:00.696Z,970.4135
2022-11-17T10:08:00.794Z,970.4608
2022-11-17T10:09:00.927Z,970.4411
2022-11-17T10:10:01.085Z,970.4135
2022-11-17T10:11:01.252Z,970.3665
2022-11-17T10:12:00.363Z,970.3506
2022-11-17T10:13:00.543Z,970.3346
2022-11-17T10:14:00.664Z,970.4956
2022-11-17T10:15:00.810Z,970.3283
2022-11-17T10:16:00.954Z,970.2651
2022-11-17T10:17:01.112Z,970.3506
2022-11-17T10:18:01.278Z,970.2936
2022-11-17T10:19:00.403Z,970.2525
2022-11-17T10:20:00.566Z,970.3506
2022-11-17T10:21:00.708Z,970.2492
2022-11-17T10:22:00.857Z,970.1699
2022-11-17T10:23:01.056Z,970.3757
2022-11-17T10:24:01.171Z,970.2047
2022-11-17T10:25:00.292Z,970.3384
2022-11-17T10:26:00.440Z,970.2244
2022-11-17T10:27:00.580Z,970.2902
2022-11-17T10:28:00.724Z,970.2617
2022-11-17T10:29:04.031Z,970.3757
2022-11-17T10:30:01.000Z,970.4797
2022-11-17T10:31:01.131Z,970.3099
2022-11-17T10:32:00.276Z,970.3162
2022-11-17T10:33:00.423Z,970.1871
2022-11-17T10:34:00.719Z,970.2219
2022-11-17T10:35:00.710Z,970.2814
2022-11-17T10:36:00.865Z,970.2244
2022-11-17T10:37:01.004Z,970.1364
2022-11-17T10:38:01.147Z,970.3984
2022-11-17T10:39:00.312Z,970.1205
2022-11-17T10:40:00.444Z,970.3569
2022-11-17T10:41:00.592Z,970.3196
2022-11-17T10:42:00.745Z,970.4017
2022-11-17T10:43:00.891Z,970.1007
2022-11-17T10:44:01.163Z,970.0214
2022-11-17T10:45:01.190Z,970.0285
2022-11-17T10:46:00.328Z,970.0734
2022-11-17T10:47:02.708Z,970.0075
2022-11-17T10:48:00.620Z,970.0737
2022-11-17T10:49:00.789Z,970.3019
2022-11-17T10:50:00.923Z,970.2164
2022-11-17T10:51:01.108Z,970.0452
2022-11-17T10:52:01.221Z,970.0204
2022-11-17T10:53:00.366Z,970.0518
2022-11-17T10:54:00.531Z,970.0972
2022-11-17T10:55:00.708Z,970.0778
2022-11-17T10:56:00.838Z,970.1219
2022-11-17T10:57:00.972Z,969.9792
2022-11-17T10:58:01.098Z,970.205
2022-11-17T10:59:01.252Z,970.2373
2022-11-17T11:00:00.417Z,970.0126
2022-11-17T11:01:00.597Z,969.977
2022-11-17T11:02:00.692Z,969.9259
2022-11-17T11:03:00.842Z,970.031
2022-11-17T11:04:01.003Z,969.8497
2022-11-17T11:05:01.151Z,969.9219
2022-11-17T11:06:00.288Z,969.8908
2022-11-17T11:07:00.490Z,969.8845
2022-11-17T11:08:00.569Z,969.8908
2022-11-17T11:09:00.726Z,970.0025
2022-11-17T11:10:00.888Z,969.9191
2022-11-17T11:11:01.021Z,969.8536
2022-11-17T11:12:01.159Z,969.8973
2022-11-17T11:13:00.288Z,969.7642
2022-11-17T11:14:00.443Z,969.7294
2022-11-17T11:15:00.609Z,969.7928
2022-11-17T11:16:00.759Z,969.5867
2022-11-17T11:17:00.906Z,969.6152
2022-11-17T11:18:01.072Z,969.519
2022-11-17T11:19:01.203Z,969.7109
2022-11-17T11:20:00.341Z,969.5798
2022-11-17T11:21:00.496Z,969.7477
2022-11-17T11:22:00.634Z,969.7094
2022-11-17T11:23:00.799Z,969.7988
2022-11-17T11:24:00.927Z,969.6694
2022-11-17T11:25:01.084Z,969.9009
2022-11-17T11:26:01.235Z,969.5806
2022-11-17T11:27:00.396Z,969.8566
2022-11-17T11:28:00.545Z,969.8541
2022-11-17T11:29:00.686Z,969.9213
2022-11-17T11:30:00.831Z,969.7437
2022-11-17T11:31:00.973Z,969.5688
2022-11-17T11:32:01.129Z,969.5973
2022-11-17T11:33:01.255Z,969.6734
2022-11-17T11:34:00.406Z,969.6574
2022-11-17T11:35:00.538Z,969.6871
2022-11-17T11:36:00.672Z,969.7506
2022-11-17T11:37:00.825Z,969.6934
2022-11-17T11:38:00.967Z,969.6273
2022-11-17T11:39:01.128Z,969.7383
2022-11-17T11:40:00.290Z,969.6937
2022-11-17T11:41:00.412Z,969.7009
2022-11-17T11:42:06.405Z,969.5793
2022-11-17T11:43:00.696Z,969.5418
2022-11-17T11:44:00.844Z,969.5446
2022-11-17T11:45:01.019Z,969.5921
2022-11-17T11:46:01.141Z,969.5449
2022-11-17T11:47:00.301Z,969.6121
2022-11-17T11:48:00.444Z,969.5039
2022-11-17T11:49:00.624Z,969.5193